Time;durP1;ratioP1;P1;durP2;ratioP2;P2;SDS_P1;SDS_P2;PMS_P1;PMS_P2;Temp;Humidity;BMP_temperature;BMP_pressure;BME280_temperature;BME280_humidity;BME280_pressure;Samples;Min_cycle;Max_cycle;Signal;HPM_P1;HPM_P2
2021/12/16 00:01:58;;;;;;;16.90;14.33;;;;;;;6.70;100.00;101845.56;5012231;28;20951;-67
2021/12/16 00:34:01;;;;;;;17.73;14.27;;;;;;;6.81;100.00;101858.25;5033821;28;20204;-67
2021/12/16 00:36:34;;;;;;;18.53;15.73;;;;;;;7.03;100.00;101861.44;5033761;28;20655;-67
2021/12/16 00:39:04;;;;;;;20.27;14.57;;;;;;;7.14;100.00;101854.47;5032324;28;20162;-67
2021/12/16 00:41:30;;;;;;;20.30;16.23;;;;;;;7.10;100.00;101870.72;5021186;28;20226;-67
2021/12/16 00:44:14;;;;;;;19.60;15.17;;;;;;;6.82;100.00;101860.78;5031742;28;20221;-67
2021/12/16 00:54:35;;;;;;;19.80;15.50;;;;;;;7.09;100.00;101858.78;5032164;28;20276;-67
2021/12/16 00:57:07;;;;;;;21.77;15.27;;;;;;;6.94;100.00;101863.22;5032391;28;20179;-67
2021/12/16 00:59:37;;;;;;;20.33;15.00;;;;;;;6.82;100.00;101867.63;5032132;28;20610;-67
2021/12/16 01:02:20;;;;;;;17.17;14.47;;;;;;;6.79;100.00;101866.78;5020283;28;20224;-67
2021/12/16 01:35:40;;;;;;;19.53;14.97;;;;;;;6.38;100.00;101887.66;4969922;28;20246;-66
2021/12/16 01:46:40;;;;;;;17.03;13.67;;;;;;;6.92;100.00;101889.69;4969911;28;20218;-66
2021/12/16 01:52:03;;;;;;;16.93;14.30;;;;;;;6.85;100.00;101891.47;5019930;28;20259;-66
2021/12/16 01:57:23;;;;;;;15.57;13.10;;;;;;;6.52;100.00;101882.41;5031016;28;20589;-66
2021/12/16 01:59:58;;;;;;;16.17;12.97;;;;;;;6.65;100.00;101890.81;5031104;28;20206;-65
2021/12/16 02:10:16;;;;;;;13.97;12.53;;;;;;;6.63;100.00;101878.03;5027374;28;20264;-66
2021/12/16 02:13:13;;;;;;;16.43;12.77;;;;;;;6.85;100.00;101877.84;5037322;28;20627;-66
2021/12/16 02:37:17;;;;;;;15.17;12.73;;;;;;;6.27;100.00;101851.94;5030530;28;20177;-65
2021/12/16 02:39:44;;;;;;;15.03;12.27;;;;;;;6.19;100.00;101851.16;5030433;28;20181;-67
2021/12/16 02:42:17;;;;;;;13.47;11.80;;;;;;;6.25;100.00;101848.56;5018944;28;20247;-66
2021/12/16 02:50:00;;;;;;;14.63;13.03;;;;;;;6.35;100.00;101859.53;5034534;28;20184;-67
2021/12/16 02:52:27;;;;;;;16.60;13.20;;;;;;;6.45;100.00;101859.47;5006517;28;20232;-66
2021/12/16 02:54:53;;;;;;;14.23;12.73;;;;;;;6.45;100.00;101863.75;5033873;28;20323;-66
2021/12/16 02:57:18;;;;;;;17.13;14.07;;;;;;;6.35;100.00;101875.75;5028283;28;20589;-66
2021/12/16 02:59:46;;;;;;;15.20;12.67;;;;;;;6.43;100.00;101879.06;5033926;28;20177;-65
2021/12/16 03:02:15;;;;;;;17.33;13.33;;;;;;;6.57;100.00;101876.41;5022696;28;20585;-66
2021/12/16 03:04:43;;;;;;;15.10;13.50;;;;;;;6.53;100.00;101877.28;5033761;28;20702;-66
2021/12/16 03:07:11;;;;;;;16.10;12.90;;;;;;;6.73;100.00;101873.69;5033714;28;20251;-67
2021/12/16 03:10:19;;;;;;;15.43;12.23;;;;;;;6.69;100.00;101875.44;5034339;28;20184;-66
2021/12/16 03:15:30;;;;;;;18.10;12.30;;;;;;;6.58;100.00;101882.34;5033310;28;20255;-67
2021/12/16 03:18:05;;;;;;;14.83;11.97;;;;;;;6.49;100.00;101872.19;5033945;28;20180;-66
2021/12/16 03:20:50;;;;;;;15.20;12.40;;;;;;;6.51;100.00;101875.59;5002319;28;20233;-66
2021/12/16 03:26:49;;;;;;;15.03;11.97;;;;;;;6.77;100.00;101871.09;5044793;28;20196;-66
2021/12/16 03:32:13;;;;;;;16.87;12.83;;;;;;;6.97;100.00;101872.59;5010235;28;20261;-67
2021/12/16 03:37:18;;;;;;;19.57;12.70;;;;;;;6.92;100.00;101876.88;5031527;28;20633;-66
2021/12/16 03:39:58;;;;;;;17.37;12.73;;;;;;;6.89;100.00;101876.94;5033555;28;20181;-66
2021/12/16 03:42:37;;;;;;;14.83;12.93;;;;;;;6.99;100.00;101878.53;5021993;28;20275;-66
2021/12/16 03:48:17;;;;;;;15.63;12.30;;;;;;;6.88;100.00;101883.75;5033325;28;20255;-66
2021/12/16 03:50:42;;;;;;;18.30;13.60;;;;;;;7.02;100.00;101882.75;5022730;28;20239;-67
2021/12/16 03:53:09;;;;;;;15.37;12.77;;;;;;;7.04;100.00;101892.09;5032566;28;20361;-68
2021/12/16 03:55:35;;;;;;;16.87;13.43;;;;;;;7.00;100.00;101887.06;5030563;28;20193;-67
2021/12/16 03:58:00;;;;;;;17.37;13.53;;;;;;;7.03;100.00;101882.75;5033082;28;20174;-67
2021/12/16 04:00:30;;;;;;;17.17;13.53;;;;;;;7.01;100.00;101883.63;5009537;28;20315;-68
2021/12/16 04:02:57;;;;;;;17.60;13.57;;;;;;;6.83;100.00;101888.06;5019251;28;20189;-67
2021/12/16 04:05:24;;;;;;;17.73;14.30;;;;;;;6.94;100.00;101885.41;5032530;28;20312;-68
2021/12/16 04:07:50;;;;;;;17.40;13.97;;;;;;;6.89;100.00;101884.63;5032856;28;20563;-68
2021/12/16 04:10:23;;;;;;;17.23;13.17;;;;;;;6.81;100.00;101881.28;5022769;28;20182;-66
2021/12/16 04:12:50;;;;;;;16.40;13.70;;;;;;;6.83;100.00;101882.13;5015057;28;20181;-66
2021/12/16 04:15:16;;;;;;;17.70;14.40;;;;;;;6.94;100.00;101880.28;5022354;28;20213;-66
2021/12/16 04:17:41;;;;;;;18.63;14.87;;;;;;;6.84;100.00;101887.22;5031699;28;20177;-67
2021/12/16 04:20:11;;;;;;;18.03;14.20;;;;;;;6.78;100.00;101894.94;5021317;28;20192;-67
2021/12/16 04:22:42;;;;;;;15.67;12.87;;;;;;;6.89;100.00;101892.28;5024157;28;20251;-67
2021/12/16 04:25:14;;;;;;;16.67;13.60;;;;;;;6.93;100.00;101899.91;5034409;28;20207;-66
2021/12/16 04:27:41;;;;;;;20.20;13.40;;;;;;;6.76;100.00;101889.84;5052417;28;20297;-67
2021/12/16 04:30:10;;;;;;;17.63;13.70;;;;;;;6.77;100.00;101893.25;5029571;28;20180;-67
2021/12/16 04:32:35;;;;;;;19.03;14.17;;;;;;;6.88;100.00;101890.59;5050679;28;20198;-66
2021/12/16 04:35:01;;;;;;;18.67;14.57;;;;;;;6.92;100.00;101897.34;5052148;28;20208;-66
2021/12/16 04:37:26;;;;;;;19.57;14.60;;;;;;;6.72;100.00;101898.44;5052455;28;20180;-66
2021/12/16 04:39:52;;;;;;;18.43;14.73;;;;;;;6.81;100.00;101894.06;5052245;28;20179;-67
2021/12/16 04:42:20;;;;;;;17.80;14.23;;;;;;;6.88;100.00;101893.16;5040826;28;20233;-67
2021/12/16 04:44:45;;;;;;;17.40;13.90;;;;;;;6.81;100.00;101891.50;5052004;28;20748;-67
2021/12/16 04:47:13;;;;;;;17.73;14.10;;;;;;;6.74;100.00;101901.78;5051978;28;20287;-67
2021/12/16 04:49:38;;;;;;;18.63;13.87;;;;;;;6.85;100.00;101909.38;5052089;28;20181;-67
2021/12/16 04:52:08;;;;;;;19.43;15.40;;;;;;;6.75;100.00;101911.16;5040467;28;20351;-67
2021/12/16 04:54:33;;;;;;;17.40;13.87;;;;;;;6.67;100.00;101909.56;5051926;28;20201;-67
2021/12/16 04:56:59;;;;;;;18.23;13.97;;;;;;;6.58;100.00;101918.16;5052092;28;20198;-67
2021/12/16 04:59:28;;;;;;;21.07;14.40;;;;;;;6.68;100.00;101914.63;5051721;28;20548;-67
2021/12/16 05:01:56;;;;;;;18.73;13.90;;;;;;;6.60;100.00;101924.94;5040350;28;20233;-67
2021/12/16 05:04:22;;;;;;;20.10;15.07;;;;;;;6.74;100.00;101919.69;5051392;28;20219;-67
2021/12/16 05:06:48;;;;;;;19.17;15.00;;;;;;;6.89;100.00;101916.16;5051560;28;20187;-67
2021/12/16 05:09:33;;;;;;;24.10;14.80;;;;;;;6.94;100.00;101924.63;5033495;28;20205;-67
2021/12/16 05:11:59;;;;;;;21.80;14.93;;;;;;;6.90;100.00;101920.41;5040164;28;20765;-67
2021/12/16 05:14:24;;;;;;;21.10;15.70;;;;;;;6.71;100.00;101918.88;5051177;28;20176;-68
2021/12/16 05:16:49;;;;;;;20.10;15.27;;;;;;;6.79;100.00;101928.19;5051581;28;20623;-67
2021/12/16 05:19:15;;;;;;;20.13;15.80;;;;;;;6.71;100.00;101924.00;5051473;28;20188;-67
2021/12/16 05:24:16;;;;;;;18.90;14.83;;;;;;;6.76;100.00;101928.22;5044469;28;20176;-67
2021/12/16 05:26:41;;;;;;;23.17;18.80;;;;;;;7.08;100.00;101927.06;5036312;28;20513;-67
2021/12/16 05:29:07;;;;;;;18.93;14.87;;;;;;;6.73;100.00;101922.28;5031370;28;20288;-68
2021/12/16 05:31:33;;;;;;;22.83;15.60;;;;;;;6.77;100.00;101927.38;5020437;28;20221;-68
2021/12/16 05:33:59;;;;;;;21.47;16.43;;;;;;;6.65;100.00;101929.16;5030766;28;20199;-68
2021/12/16 05:36:25;;;;;;;21.33;16.13;;;;;;;6.55;100.00;101934.38;5031062;28;20374;-68
2021/12/16 05:38:51;;;;;;;25.30;16.83;;;;;;;6.62;100.00;101936.03;5031224;28;20256;-68
2021/12/16 05:41:18;;;;;;;27.63;16.23;;;;;;;6.34;100.00;101926.84;5020182;28;20725;-68
2021/12/16 05:43:44;;;;;;;24.07;15.20;;;;;;;6.54;100.00;101937.78;5030098;28;20232;-67
2021/12/16 05:46:11;;;;;;;22.90;15.83;;;;;;;6.55;100.00;101936.06;5031516;28;20275;-67
2021/12/16 05:48:40;;;;;;;22.83;15.90;;;;;;;6.53;100.00;101936.09;5031418;28;20208;-67
2021/12/16 05:51:09;;;;;;;20.83;16.13;;;;;;;6.36;100.00;101940.47;5020127;28;20232;-67
2021/12/16 05:53:36;;;;;;;18.77;15.07;;;;;;;6.55;100.00;101936.06;5030113;28;20169;-67
2021/12/16 05:56:04;;;;;;;19.80;14.97;;;;;;;6.71;100.00;101940.22;5030787;28;20209;-68
2021/12/16 05:58:30;;;;;;;20.40;15.93;;;;;;;6.59;100.00;101945.44;5030863;28;20235;-67
2021/12/16 06:01:00;;;;;;;21.17;14.73;;;;;;;6.45;100.00;101946.38;5019036;28;20316;-67
2021/12/16 06:03:25;;;;;;;22.03;15.47;;;;;;;6.41;100.00;101943.84;5030551;28;20231;-68
2021/12/16 06:05:52;;;;;;;20.97;15.13;;;;;;;6.45;100.00;101950.66;5030463;28;20192;-68
2021/12/16 06:08:18;;;;;;;21.93;15.13;;;;;;;6.48;100.00;101947.22;5030496;28;20281;-67
2021/12/16 06:13:31;;;;;;;20.73;15.43;;;;;;;6.43;100.00;101932.75;5030104;28;20172;-66
2021/12/16 06:29:17;;;;;;;21.83;15.77;;;;;;;6.34;100.00;101962.63;5051371;28;20215;-66
2021/12/16 06:31:42;;;;;;;20.17;15.47;;;;;;;6.09;100.00;101966.22;5039032;28;20224;-67
2021/12/16 06:34:08;;;;;;;21.50;15.53;;;;;;;6.09;100.00;101965.34;5049747;28;20543;-67
2021/12/16 06:36:33;;;;;;;20.60;15.43;;;;;;;6.32;100.00;101965.22;5049916;28;20265;-67
2021/12/16 06:38:59;;;;;;;22.50;15.53;;;;;;;6.46;100.00;101968.53;5050185;28;20520;-67
2021/12/16 06:41:27;;;;;;;19.77;15.07;;;;;;;6.61;100.00;101970.13;5038942;28;20230;-68
2021/12/16 06:43:54;;;;;;;19.47;15.00;;;;;;;6.63;100.00;101958.16;5049474;28;20182;-67
2021/12/16 06:46:22;;;;;;;22.13;15.57;;;;;;;6.67;100.00;101969.19;5050029;28;20220;-67
2021/12/16 06:48:55;;;;;;;21.07;15.50;;;;;;;6.76;100.00;101975.94;5050026;28;20221;-67
2021/12/16 06:51:33;;;;;;;19.73;15.63;;;;;;;6.73;100.00;101979.38;5038836;28;20628;-67
2021/12/16 06:54:09;;;;;;;21.97;15.67;;;;;;;6.82;100.00;101980.19;5049337;28;20173;-67
2021/12/16 06:59:29;;;;;;;19.97;15.63;;;;;;;6.77;100.00;101983.63;5030147;28;20649;-67
2021/12/16 07:02:06;;;;;;;20.80;15.80;;;;;;;6.78;100.00;101987.03;5038560;28;20224;-67
2021/12/16 07:04:34;;;;;;;21.13;15.40;;;;;;;6.82;100.00;101990.41;5049614;28;20202;-67
2021/12/16 07:06:59;;;;;;;20.63;15.30;;;;;;;6.88;100.00;102003.16;5041209;28;20181;-67
2021/12/16 07:09:25;;;;;;;22.37;15.40;;;;;;;6.91;100.00;102003.97;5029178;28;20185;-68
2021/12/16 07:11:56;;;;;;;26.37;16.40;;;;;;;6.93;100.00;102009.06;5017242;28;20219;-68
2021/12/16 07:14:34;;;;;;;20.57;16.47;;;;;;;6.87;100.00;102016.78;5028527;28;20242;-67
2021/12/16 07:17:03;;;;;;;21.47;15.50;;;;;;;6.88;100.00;102018.50;5027804;28;20271;-66
2021/12/16 07:19:28;;;;;;;21.10;15.10;;;;;;;6.76;100.00;102022.00;5028724;28;20642;-66
2021/12/16 07:21:54;;;;;;;21.23;15.53;;;;;;;6.81;100.00;102021.97;5003069;28;20239;-68
2021/12/16 07:24:20;;;;;;;23.83;16.80;;;;;;;6.82;100.00;102018.56;5011604;28;20986;-65
2021/12/16 07:26:47;;;;;;;24.37;16.43;;;;;;;6.81;100.00;102029.63;5029483;28;20672;-66
2021/12/16 07:29:13;;;;;;;21.00;15.97;;;;;;;6.77;100.00;102026.25;5029119;28;20197;-66
2021/12/16 07:31:41;;;;;;;25.57;15.37;;;;;;;6.36;100.00;102025.66;5020966;28;20221;-66
2021/12/16 07:34:08;;;;;;;21.33;15.53;;;;;;;6.51;100.00;102036.66;5025015;28;20203;-67
2021/12/16 07:36:36;;;;;;;19.33;14.97;;;;;;;6.54;100.00;102045.16;5031815;28;20197;-66
2021/12/16 07:39:05;;;;;;;19.70;16.00;;;;;;;6.65;100.00;102044.25;5030012;28;20185;-66
2021/12/16 07:41:32;;;;;;;24.27;16.13;;;;;;;6.76;100.00;102042.44;5031654;28;20255;-61
2021/12/16 07:44:11;;;;;;;22.80;17.97;;;;;;;6.84;100.00;102043.25;5032694;28;20259;-59
2021/12/16 07:46:36;;;;;;;23.43;16.67;;;;;;;6.84;100.00;102048.38;5014532;28;20255;-67
2021/12/16 07:49:04;;;;;;;19.90;16.37;;;;;;;6.52;100.00;102056.28;5031690;28;20308;-68
2021/12/16 07:51:30;;;;;;;21.07;14.93;;;;;;;6.58;100.00;102053.69;5022486;28;20221;-67
2021/12/16 07:53:56;;;;;;;19.47;15.03;;;;;;;6.59;100.00;102051.09;5032517;28;20200;-67
2021/12/16 07:56:21;;;;;;;21.47;15.63;;;;;;;6.75;100.00;102062.06;5033108;28;20247;-67
2021/12/16 07:58:46;;;;;;;20.80;15.07;;;;;;;6.93;100.00;102047.44;5033176;28;20227;-67
2021/12/16 08:01:12;;;;;;;22.13;15.93;;;;;;;6.82;100.00;102062.03;5002924;28;20215;-67
2021/12/16 08:03:38;;;;;;;21.10;16.03;;;;;;;6.39;100.00;102058.91;5025211;28;20180;-68
2021/12/16 08:06:09;;;;;;;21.00;15.47;;;;;;;6.56;100.00;102063.06;5032871;28;20201;-66
2021/12/16 08:08:35;;;;;;;19.17;14.73;;;;;;;6.73;100.00;102061.22;5032965;28;20303;-65
2021/12/16 08:11:02;;;;;;;19.77;16.13;;;;;;;6.52;100.00;102058.81;5022304;28;20229;-67
2021/12/16 08:13:28;;;;;;;20.37;15.10;;;;;;;6.34;100.00;102059.78;5031845;28;20243;-67
2021/12/16 08:15:53;;;;;;;24.90;15.17;;;;;;;6.40;100.00;102065.72;5022040;28;20700;-67
2021/12/16 08:18:19;;;;;;;28.23;15.43;;;;;;;6.58;100.00;102062.19;5032120;28;20224;-67
2021/12/16 08:20:44;;;;;;;20.40;16.10;;;;;;;6.78;100.00;102066.31;5022197;28;20229;-68
2021/12/16 08:23:12;;;;;;;19.67;14.73;;;;;;;7.00;100.00;102066.19;5038341;28;20181;-67
2021/12/16 08:25:38;;;;;;;19.87;15.67;;;;;;;6.90;100.00;102076.47;5032373;28;20197;-67
2021/12/16 08:28:04;;;;;;;26.23;15.00;;;;;;;6.62;100.00;102074.13;5032726;28;20208;-67
2021/12/16 08:30:37;;;;;;;23.67;16.07;;;;;;;6.78;100.00;102079.09;5001943;28;20275;-68
2021/12/16 08:33:07;;;;;;;25.57;15.60;;;;;;;7.17;100.00;102072.00;5031760;28;20203;-67
2021/12/16 08:35:32;;;;;;;23.43;15.97;;;;;;;7.35;100.00;102077.81;5032536;28;20194;-67
2021/12/16 08:37:58;;;;;;;17.20;14.70;;;;;;;7.35;100.00;102080.38;5031265;28;20173;-67
2021/12/16 08:40:25;;;;;;;22.63;16.27;;;;;;;7.45;100.00;102086.25;5021626;28;20261;-68
2021/12/16 08:42:50;;;;;;;20.37;14.83;;;;;;;7.32;100.00;102095.75;5028508;28;20651;-67
2021/12/16 08:45:34;;;;;;;20.27;14.47;;;;;;;6.99;100.00;102098.56;5030226;28;20266;-67
2021/12/16 08:48:00;;;;;;;21.10;16.27;;;;;;;7.09;100.00;102089.97;5036535;28;20691;-67
2021/12/16 08:50:31;;;;;;;19.60;14.87;;;;;;;7.07;100.00;102101.94;5023153;28;20325;-67
2021/12/16 08:52:59;;;;;;;20.30;16.33;;;;;;;7.61;100.00;102104.88;5029037;28;20185;-67
2021/12/16 08:55:26;;;;;;;20.83;16.77;;;;;;;7.78;100.00;102104.69;5037197;28;20702;-67
2021/12/16 08:57:53;;;;;;;21.87;15.17;;;;;;;8.00;100.00;102110.44;5036724;28;20231;-67
2021/12/16 09:00:22;;;;;;;17.53;14.53;;;;;;;8.00;98.68;102111.28;5028090;28;20182;-68
2021/12/16 09:02:47;;;;;;;19.17;15.03;;;;;;;8.02;97.95;102119.78;5030540;28;20174;-67
2021/12/16 09:05:13;;;;;;;19.00;14.93;;;;;;;7.90;98.49;102110.53;5034802;28;20638;-67
2021/12/16 09:07:39;;;;;;;17.53;13.87;;;;;;;7.96;98.35;102108.78;5033931;28;20651;-67
2021/12/16 09:10:07;;;;;;;19.67;15.10;;;;;;;8.07;97.74;102117.19;5022889;28;20174;-67
2021/12/16 09:14:59;;;;;;;18.73;14.23;;;;;;;8.16;97.16;102121.34;5034054;28;20284;-67
2021/12/16 09:17:25;;;;;;;21.40;15.97;;;;;;;8.36;96.43;102121.97;5032457;28;20167;-67
2021/12/16 09:19:53;;;;;;;19.73;15.10;;;;;;;8.50;95.52;102118.41;5031056;28;20207;-68
2021/12/16 09:22:20;;;;;;;19.57;15.77;;;;;;;8.59;94.91;102128.53;5019959;28;20260;-67
2021/12/16 09:24:48;;;;;;;21.80;15.43;;;;;;;8.74;93.62;102124.06;5012892;28;20210;-67
2021/12/16 09:27:15;;;;;;;16.60;14.50;;;;;;;9.02;92.34;102129.63;5030347;28;20182;-67
2021/12/16 09:29:41;;;;;;;19.50;14.83;;;;;;;8.98;90.56;102126.25;5022054;28;20218;-67
2021/12/16 09:32:07;;;;;;;19.20;14.83;;;;;;;9.27;89.89;102135.22;5018899;28;20313;-67
2021/12/16 09:34:35;;;;;;;22.33;15.50;;;;;;;9.38;88.27;102132.47;5030996;28;20233;-67
2021/12/16 09:37:00;;;;;;;19.03;14.90;;;;;;;9.29;88.34;102132.63;5032089;28;20174;-67
2021/12/16 09:39:27;;;;;;;20.83;15.80;;;;;;;9.65;87.04;102143.13;5031065;28;20260;-67
2021/12/16 09:41:57;;;;;;;19.57;16.33;;;;;;;9.60;86.03;102143.22;5020390;28;20233;-67
2021/12/16 09:44:24;;;;;;;18.17;16.07;;;;;;;9.66;85.42;102144.81;5030538;28;20174;-67
2021/12/16 09:46:51;;;;;;;19.93;15.63;;;;;;;9.66;85.08;102150.84;5029854;28;20209;-67
2021/12/16 09:49:18;;;;;;;17.20;15.37;;;;;;;9.67;85.31;102141.38;5030188;28;20205;-68
2021/12/16 09:51:45;;;;;;;21.10;16.47;;;;;;;9.69;85.15;102143.06;5011762;28;20225;-68
2021/12/16 09:54:16;;;;;;;18.83;15.90;;;;;;;9.96;84.07;102142.56;5028998;28;20182;-68
2021/12/16 09:56:44;;;;;;;17.57;14.47;;;;;;;10.43;82.22;102145.94;5027979;28;20293;-68
2021/12/16 09:59:13;;;;;;;16.27;14.57;;;;;;;11.40;75.77;102135.13;5030190;28;20563;-68
2021/12/16 10:01:39;;;;;;;18.63;14.17;;;;;;;11.67;73.73;102149.91;5007367;28;20322;-68
2021/12/16 10:04:09;;;;;;;16.90;15.10;;;;;;;11.63;73.88;102152.59;5009622;28;20599;-67
2021/12/16 10:06:37;;;;;;;19.57;15.23;;;;;;;11.44;74.18;102159.91;5030640;28;20292;-66
2021/12/16 10:09:05;;;;;;;20.07;15.93;;;;;;;11.02;76.27;102165.22;5030709;28;20205;-65
2021/12/16 10:11:34;;;;;;;18.60;15.87;;;;;;;10.22;78.75;102162.66;5019947;28;20232;-66
2021/12/16 10:14:14;;;;;;;18.83;15.93;;;;;;;10.23;80.61;102154.03;5030158;28;20174;-66
2021/12/16 10:19:31;;;;;;;18.17;15.93;;;;;;;10.36;80.77;102153.78;5030748;28;20185;-67
2021/12/16 10:22:20;;;;;;;26.10;16.70;;;;;;;10.48;80.25;102151.84;5023257;28;20225;-67
2021/12/16 10:24:47;;;;;;;18.50;15.90;;;;;;;10.58;80.63;102151.63;4992653;28;20195;-65
2021/12/16 10:27:16;;;;;;;17.50;15.50;;;;;;;10.74;80.35;102159.88;5046879;28;20180;-65
2021/12/16 10:29:49;;;;;;;24.27;16.27;;;;;;;10.48;80.18;102154.41;5050549;28;20192;-65
2021/12/16 10:32:37;;;;;;;24.93;17.47;;;;;;;9.94;81.68;102154.63;5039010;28;20229;-66
2021/12/16 10:35:11;;;;;;;16.80;15.07;;;;;;;9.91;83.42;102149.50;5032013;28;20215;-66
2021/12/16 10:37:40;;;;;;;23.57;17.30;;;;;;;9.75;83.79;102156.66;5050414;28;20588;-66
2021/12/16 10:40:25;;;;;;;21.10;17.47;;;;;;;9.88;83.63;102159.88;5021703;28;20259;-66
2021/12/16 10:42:51;;;;;;;23.73;16.77;;;;;;;9.89;84.24;102148.72;5036108;28;20631;-66
2021/12/16 10:45:38;;;;;;;20.10;15.97;;;;;;;9.97;84.12;102146.84;5010032;28;20282;-66
2021/12/16 10:48:24;;;;;;;20.17;16.83;;;;;;;10.31;82.94;102144.44;5043043;28;20198;-67
2021/12/16 10:50:58;;;;;;;18.67;15.37;;;;;;;10.15;82.96;102140.50;5010111;28;20233;-66
2021/12/16 10:53:45;;;;;;;26.00;17.10;;;;;;;10.19;82.82;102131.81;5009929;28;20604;-66
2021/12/16 10:56:11;;;;;;;20.90;16.77;;;;;;;10.07;83.90;102138.09;5029497;28;20630;-66
2021/12/16 10:59:02;;;;;;;24.43;15.97;;;;;;;10.03;83.99;102141.56;5029676;28;20227;-66
2021/12/16 11:01:42;;;;;;;24.63;17.77;;;;;;;9.99;83.88;102133.06;5019429;28;20233;-66
2021/12/16 11:04:12;;;;;;;17.93;15.47;;;;;;;10.44;82.22;102134.78;5029861;28;20205;-66
2021/12/16 11:06:41;;;;;;;20.13;15.37;;;;;;;10.26;82.45;102128.25;5034590;28;20169;-67
2021/12/16 11:09:31;;;;;;;21.37;15.87;;;;;;;10.33;81.86;102118.69;5033827;28;20205;-66
2021/12/16 11:12:30;;;;;;;27.40;16.37;;;;;;;10.34;81.81;102110.09;5022744;28;20689;-67
2021/12/16 11:15:08;;;;;;;18.83;15.80;;;;;;;9.88;83.70;102114.44;5032372;28;20241;-66
2021/12/16 11:17:38;;;;;;;18.70;15.33;;;;;;;9.76;84.63;102112.09;5034004;28;20243;-66
2021/12/16 11:20:25;;;;;;;21.83;16.50;;;;;;;9.68;84.10;102107.94;5022527;28;20189;-67
2021/12/16 11:22:56;;;;;;;21.37;17.53;;;;;;;9.71;84.55;102108.78;5039022;28;20213;-68
2021/12/16 11:25:33;;;;;;;22.47;16.57;;;;;;;9.83;84.01;102114.53;5033313;28;20311;-64
2021/12/16 11:28:11;;;;;;;21.67;16.77;;;;;;;10.08;83.44;102124.31;5033037;28;20654;-66
2021/12/16 11:31:02;;;;;;;23.23;17.87;;;;;;;10.25;81.94;102123.97;5015439;28;20229;-66
2021/12/16 11:33:32;;;;;;;20.53;16.20;;;;;;;10.49;80.84;102129.53;5021401;28;20175;-66
2021/12/16 11:36:07;;;;;;;21.10;18.23;;;;;;;10.40;80.07;102125.41;5018843;28;20218;-66
2021/12/16 11:38:47;;;;;;;20.90;17.57;;;;;;;10.12;80.78;102131.13;5032564;28;20178;-64
2021/12/16 11:41:15;;;;;;;19.33;16.93;;;;;;;10.14;81.90;102123.38;5021088;28;20218;-63
2021/12/16 11:43:52;;;;;;;21.57;17.73;;;;;;;10.22;81.60;102128.34;5031628;28;20616;-66
2021/12/16 11:46:25;;;;;;;23.97;17.17;;;;;;;10.37;80.20;102127.22;5015562;28;20222;-67
2021/12/16 11:48:52;;;;;;;20.63;17.33;;;;;;;10.43;79.75;102119.34;5033100;28;20198;-66
2021/12/16 11:51:34;;;;;;;25.60;18.20;;;;;;;10.15;80.79;102119.91;5022642;28;20678;-66
2021/12/16 11:54:03;;;;;;;21.63;18.03;;;;;;;10.36;80.98;102120.34;5031732;28;20277;-66
2021/12/16 11:56:47;;;;;;;22.37;17.60;;;;;;;10.47;79.78;102116.69;5015424;28;20194;-65
2021/12/16 11:59:22;;;;;;;23.87;17.87;;;;;;;10.54;79.58;102121.72;5032958;28;20173;-66
2021/12/16 12:01:48;;;;;;;21.10;17.80;;;;;;;10.59;79.47;102119.88;5011884;28;20225;-67
2021/12/16 12:04:14;;;;;;;23.77;18.33;;;;;;;10.55;79.18;102121.66;5038156;28;20189;-66
2021/12/16 12:06:44;;;;;;;25.80;19.47;;;;;;;10.54;79.28;102124.28;5032195;28;20174;-66
2021/12/16 12:09:11;;;;;;;25.10;18.70;;;;;;;10.52;79.13;102123.47;5028664;28;20205;-67
2021/12/16 12:11:40;;;;;;;28.67;22.47;;;;;;;10.04;81.04;102114.16;5012779;28;20225;-67
2021/12/16 12:14:12;;;;;;;30.10;23.73;;;;;;;9.99;82.38;102116.81;5014897;28;20252;-67
2021/12/16 12:16:42;;;;;;;27.63;19.40;;;;;;;10.13;82.27;102117.38;5039458;28;20274;-65
2021/12/16 12:19:15;;;;;;;25.27;19.13;;;;;;;10.25;81.09;102123.16;5052216;28;20261;-67
2021/12/16 12:21:55;;;;;;;22.53;18.53;;;;;;;10.11;81.31;102108.84;5016737;28;20237;-67
2021/12/16 12:24:33;;;;;;;27.80;20.23;;;;;;;10.12;81.73;102114.81;5033674;28;20185;-67
2021/12/16 12:27:09;;;;;;;23.90;19.07;;;;;;;10.20;81.67;102106.97;5033208;28;20267;-67
2021/12/16 12:29:38;;;;;;;29.17;19.50;;;;;;;10.11;81.46;102106.28;5030980;28;20631;-67
2021/12/16 12:32:11;;;;;;;25.17;19.37;;;;;;;10.07;81.84;102108.94;5001705;28;20214;-67
2021/12/16 12:34:39;;;;;;;23.40;19.50;;;;;;;10.08;82.36;102102.91;5030726;28;20858;-66
2021/12/16 12:37:09;;;;;;;21.40;19.03;;;;;;;10.37;81.54;102110.06;5031445;28;20647;-66
2021/12/16 12:39:39;;;;;;;26.33;20.37;;;;;;;10.49;80.16;102101.22;5028068;28;20551;-67
2021/12/16 12:42:07;;;;;;;24.07;19.73;;;;;;;10.58;79.94;102097.59;5020155;28;20222;-67
2021/12/16 12:44:33;;;;;;;25.10;19.47;;;;;;;10.79;79.34;102109.13;5031350;28;20229;-67
2021/12/16 12:47:05;;;;;;;23.97;19.20;;;;;;;10.65;78.98;102107.72;5032337;28;20186;-67
2021/12/16 12:49:31;;;;;;;23.07;19.07;;;;;;;10.73;79.90;102099.81;5032268;28;20566;-66
2021/12/16 12:52:22;;;;;;;23.73;19.23;;;;;;;10.49;80.01;102093.50;5004217;28;20226;-67
2021/12/16 12:55:00;;;;;;;23.80;19.37;;;;;;;10.58;80.63;102097.59;5031982;28;20205;-66
2021/12/16 12:57:29;;;;;;;23.30;19.97;;;;;;;10.70;80.57;102105.03;5030615;28;20189;-67
2021/12/16 12:59:56;;;;;;;23.07;19.03;;;;;;;10.70;79.39;102097.31;5029365;28;20651;-67
2021/12/16 13:02:36;;;;;;;24.63;18.50;;;;;;;10.48;79.90;102102.09;5014866;28;20226;-67
2021/12/16 13:05:07;;;;;;;27.30;19.20;;;;;;;10.46;80.51;102098.72;5031092;28;20194;-66
2021/12/16 13:07:45;;;;;;;23.73;19.37;;;;;;;10.65;80.18;102105.16;5014035;28;20198;-67
2021/12/16 13:10:21;;;;;;;25.80;20.33;;;;;;;10.82;79.65;102102.16;5021463;28;20226;-67
2021/12/16 13:13:06;;;;;;;24.97;18.77;;;;;;;10.94;79.38;102107.91;5024761;28;20228;-66
2021/12/16 13:15:48;;;;;;;31.60;20.10;;;;;;;11.06;78.34;102110.19;5031001;28;20277;-66
2021/12/16 13:24:17;;;;;;;27.57;18.53;;;;;;;10.74;80.68;102109.25;5037587;28;20181;-68
2021/12/16 13:27:12;;;;;;;26.17;20.43;;;;;;;10.94;80.09;102110.47;5032166;28;20189;-68
2021/12/16 13:29:53;;;;;;;28.30;22.37;;;;;;;11.01;79.57;102109.47;5011755;28;20171;-69
2021/12/16 13:32:31;;;;;;;29.77;20.33;;;;;;;10.93;79.57;102116.53;5000598;28;20227;-67
2021/12/16 13:35:32;;;;;;;27.33;22.20;;;;;;;11.24;77.47;102106.31;5010210;28;20423;-67
2021/12/16 13:37:59;;;;;;;21.60;18.53;;;;;;;10.95;79.27;102100.16;5011637;28;20177;-67
2021/12/16 13:40:30;;;;;;;24.00;18.23;;;;;;;10.85;79.78;102110.72;5015325;28;20284;-69
2021/12/16 13:43:05;;;;;;;24.00;19.43;;;;;;;10.80;80.06;102118.53;5029600;28;20268;-67
2021/12/16 13:46:03;;;;;;;26.30;19.73;;;;;;;10.88;80.44;102120.94;5029830;28;20193;-68
2021/12/16 14:00:10;;;;;;;28.40;20.93;;;;;;;10.87;79.79;102114.13;5030350;28;20728;-68
2021/12/16 14:05:33;;;;;;;26.30;20.00;;;;;;;10.79;77.93;102120.28;5029878;28;20193;-67
2021/12/16 14:08:06;;;;;;;26.37;18.93;;;;;;;10.67;77.58;102128.28;5026185;28;20670;-67
2021/12/16 14:10:56;;;;;;;27.33;16.87;;;;;;;10.54;82.96;102126.84;5001832;28;20279;-69
2021/12/16 14:34:49;;;;;;;28.77;20.37;;;;;;;10.31;82.29;102156.47;4930988;29;20188;-73
2021/12/16 14:42:28;;;;;;;25.60;18.60;;;;;;;9.87;86.41;102153.03;4921169;29;20308;-67
2021/12/16 14:45:44;;;;;;;22.07;19.47;;;;;;;9.87;87.26;102150.47;4929490;29;20255;-68
2021/12/16 14:48:23;;;;;;;28.35;22.33;;;;;;;9.99;85.71;102150.22;4925407;29;20522;-68
2021/12/16 14:50:53;;;;;;;26.10;18.97;;;;;;;9.84;87.54;102156.50;4888274;29;20273;-68
2021/12/16 14:53:50;;;;;;;28.02;22.65;;;;;;;9.84;86.58;102139.34;4920546;29;20500;-69